sensor_id;sensor_type;location;lat;lon;timestamp;P1;durP1;ratioP1;P2;durP2;ratioP2
51602;SDS011;37954;51.980;5.850;2022-08-01T00:03:35;9.05;;;5.28;;
51602;SDS011;37954;51.980;5.850;2022-08-01T00:07:46;5.88;;;4.63;;
51602;SDS011;37954;51.980;5.850;2022-08-01T00:11:58;6.35;;;4.80;;
51602;SDS011;37954;51.980;5.850;2022-08-01T00:16:10;5.97;;;5.40;;
51602;SDS011;37954;51.980;5.850;2022-08-01T00:20:22;5.25;;;4.85;;
51602;SDS011;37954;51.980;5.850;2022-08-01T00:24:33;6.55;;;5.65;;
51602;SDS011;37954;51.980;5.850;2022-08-01T00:28:45;6.00;;;5.47;;
51602;SDS011;37954;51.980;5.850;2022-08-01T00:32:57;5.97;;;5.30;;
51602;SDS011;37954;51.980;5.850;2022-08-01T00:37:08;7.20;;;6.30;;
51602;SDS011;37954;51.980;5.850;2022-08-01T00:41:26;7.18;;;6.47;;
51602;SDS011;37954;51.980;5.850;2022-08-01T00:45:37;6.53;;;5.93;;
51602;SDS011;37954;51.980;5.850;2022-08-01T00:49:49;7.80;;;6.95;;
51602;SDS011;37954;51.980;5.850;2022-08-01T00:54:01;10.13;;;7.28;;
51602;SDS011;37954;51.980;5.850;2022-08-01T00:58:13;6.65;;;6.05;;
51602;SDS011;37954;51.980;5.850;2022-08-01T01:02:28;7.05;;;6.05;;
51602;SDS011;37954;51.980;5.850;2022-08-01T01:11:19;7.90;;;6.88;;
51602;SDS011;37954;51.980;5.850;2022-08-01T01:15:41;5.78;;;5.30;;
51602;SDS011;37954;51.980;5.850;2022-08-01T01:19:59;6.88;;;5.85;;
51602;SDS011;37954;51.980;5.850;2022-08-01T01:32:54;10.85;;;5.70;;
51602;SDS011;37954;51.980;5.850;2022-08-01T01:37:20;5.57;;;5.03;;
51602;SDS011;37954;51.980;5.850;2022-08-01T01:41:35;5.80;;;5.20;;
51602;SDS011;37954;51.980;5.850;2022-08-01T01:45:48;5.75;;;4.60;;
51602;SDS011;37954;51.980;5.850;2022-08-01T01:50:03;5.40;;;4.85;;
51602;SDS011;37954;51.980;5.850;2022-08-01T01:54:16;4.95;;;4.45;;
51602;SDS011;37954;51.980;5.850;2022-08-01T01:58:28;4.97;;;4.47;;
51602;SDS011;37954;51.980;5.850;2022-08-01T02:02:44;6.35;;;4.55;;
51602;SDS011;37954;51.980;5.850;2022-08-01T02:06:57;6.50;;;4.53;;
51602;SDS011;37954;51.980;5.850;2022-08-01T02:11:09;6.22;;;4.85;;
51602;SDS011;37954;51.980;5.850;2022-08-01T02:15:31;5.25;;;4.72;;
51602;SDS011;37954;51.980;5.850;2022-08-01T02:19:44;5.90;;;5.07;;
51602;SDS011;37954;51.980;5.850;2022-08-01T02:23:59;6.45;;;5.13;;
51602;SDS011;37954;51.980;5.850;2022-08-01T02:28:46;5.40;;;4.68;;
51602;SDS011;37954;51.980;5.850;2022-08-01T02:33:03;5.80;;;4.50;;
51602;SDS011;37954;51.980;5.850;2022-08-01T02:37:26;5.28;;;4.78;;
51602;SDS011;37954;51.980;5.850;2022-08-01T02:41:41;5.68;;;4.75;;
51602;SDS011;37954;51.980;5.850;2022-08-01T02:45:55;7.03;;;5.07;;
51602;SDS011;37954;51.980;5.850;2022-08-01T02:50:12;5.53;;;4.65;;
51602;SDS011;37954;51.980;5.850;2022-08-01T02:54:25;4.75;;;4.35;;
51602;SDS011;37954;51.980;5.850;2022-08-01T02:58:39;5.63;;;4.70;;
51602;SDS011;37954;51.980;5.850;2022-08-01T03:02:52;5.88;;;4.55;;
51602;SDS011;37954;51.980;5.850;2022-08-01T03:07:07;5.00;;;4.25;;
51602;SDS011;37954;51.980;5.850;2022-08-01T03:11:20;5.03;;;4.10;;
51602;SDS011;37954;51.980;5.850;2022-08-01T03:15:36;4.47;;;4.07;;
51602;SDS011;37954;51.980;5.850;2022-08-01T03:19:49;4.68;;;4.18;;
51602;SDS011;37954;51.980;5.850;2022-08-01T03:24:03;4.07;;;3.78;;
51602;SDS011;37954;51.980;5.850;2022-08-01T03:28:17;4.60;;;4.10;;
51602;SDS011;37954;51.980;5.850;2022-08-01T03:32:32;6.00;;;4.47;;
51602;SDS011;37954;51.980;5.850;2022-08-01T03:36:49;5.70;;;4.05;;
51602;SDS011;37954;51.980;5.850;2022-08-01T03:41:13;5.30;;;4.30;;
51602;SDS011;37954;51.980;5.850;2022-08-01T03:45:28;4.00;;;3.63;;
51602;SDS011;37954;51.980;5.850;2022-08-01T03:49:45;5.40;;;3.90;;
51602;SDS011;37954;51.980;5.850;2022-08-01T03:53:59;4.47;;;3.28;;
51602;SDS011;37954;51.980;5.850;2022-08-01T03:58:12;4.18;;;3.78;;
51602;SDS011;37954;51.980;5.850;2022-08-01T04:02:25;4.20;;;3.80;;
51602;SDS011;37954;51.980;5.850;2022-08-01T04:06:38;3.88;;;3.58;;
51602;SDS011;37954;51.980;5.850;2022-08-01T04:10:55;3.88;;;3.47;;
51602;SDS011;37954;51.980;5.850;2022-08-01T04:15:07;4.05;;;3.75;;
51602;SDS011;37954;51.980;5.850;2022-08-01T04:19:19;4.35;;;3.95;;
51602;SDS011;37954;51.980;5.850;2022-08-01T04:23:31;4.00;;;3.60;;
51602;SDS011;37954;51.980;5.850;2022-08-01T04:27:46;4.22;;;3.88;;
51602;SDS011;37954;51.980;5.850;2022-08-01T04:32:02;4.10;;;3.70;;
51602;SDS011;37954;51.980;5.850;2022-08-01T04:36:18;4.40;;;4.00;;
51602;SDS011;37954;51.980;5.850;2022-08-01T04:40:34;5.60;;;5.10;;
51602;SDS011;37954;51.980;5.850;2022-08-01T04:44:47;4.55;;;4.15;;
51602;SDS011;37954;51.980;5.850;2022-08-01T04:48:59;4.85;;;4.30;;
51602;SDS011;37954;51.980;5.850;2022-08-01T04:53:12;4.50;;;4.10;;
51602;SDS011;37954;51.980;5.850;2022-08-01T04:57:25;6.22;;;4.32;;
51602;SDS011;37954;51.980;5.850;2022-08-01T05:01:39;4.93;;;3.50;;
51602;SDS011;37954;51.980;5.850;2022-08-01T05:06:07;3.95;;;3.65;;
51602;SDS011;37954;51.980;5.850;2022-08-01T05:10:22;4.18;;;3.75;;
51602;SDS011;37954;51.980;5.850;2022-08-01T05:15:03;4.50;;;4.10;;
51602;SDS011;37954;51.980;5.850;2022-08-01T05:19:32;4.38;;;3.97;;
51602;SDS011;37954;51.980;5.850;2022-08-01T05:23:51;4.13;;;3.72;;
51602;SDS011;37954;51.980;5.850;2022-08-01T05:28:05;3.92;;;3.63;;
51602;SDS011;37954;51.980;5.850;2022-08-01T05:32:20;4.68;;;4.10;;
51602;SDS011;37954;51.980;5.850;2022-08-01T05:36:47;4.35;;;4.05;;
51602;SDS011;37954;51.980;5.850;2022-08-01T05:41:13;3.83;;;3.53;;
51602;SDS011;37954;51.980;5.850;2022-08-01T05:45:28;4.70;;;3.97;;
51602;SDS011;37954;51.980;5.850;2022-08-01T05:49:52;3.65;;;3.25;;
51602;SDS011;37954;51.980;5.850;2022-08-01T05:54:04;3.50;;;3.20;;
51602;SDS011;37954;51.980;5.850;2022-08-01T05:58:16;3.83;;;2.42;;
51602;SDS011;37954;51.980;5.850;2022-08-01T06:02:28;2.10;;;2.00;;
51602;SDS011;37954;51.980;5.850;2022-08-01T06:06:45;2.38;;;1.70;;
51602;SDS011;37954;51.980;5.850;2022-08-01T06:10:59;1.85;;;1.70;;
51602;SDS011;37954;51.980;5.850;2022-08-01T06:15:11;1.40;;;1.30;;
51602;SDS011;37954;51.980;5.850;2022-08-01T06:19:23;1.35;;;1.25;;
51602;SDS011;37954;51.980;5.850;2022-08-01T06:23:35;1.30;;;1.20;;
51602;SDS011;37954;51.980;5.850;2022-08-01T06:27:47;1.40;;;1.30;;
51602;SDS011;37954;51.980;5.850;2022-08-01T06:32:00;0.90;;;0.90;;
51602;SDS011;37954;51.980;5.850;2022-08-01T06:36:12;0.88;;;0.88;;
51602;SDS011;37954;51.980;5.850;2022-08-01T06:40:24;0.80;;;0.80;;
51602;SDS011;37954;51.980;5.850;2022-08-01T06:44:36;0.77;;;0.77;;
51602;SDS011;37954;51.980;5.850;2022-08-01T06:48:48;0.60;;;0.60;;
51602;SDS011;37954;51.980;5.850;2022-08-01T06:53:00;4.13;;;0.70;;
51602;SDS011;37954;51.980;5.850;2022-08-01T06:57:11;1.15;;;1.05;;
51602;SDS011;37954;51.980;5.850;2022-08-01T07:01:23;0.82;;;0.82;;
51602;SDS011;37954;51.980;5.850;2022-08-01T07:05:35;0.90;;;0.90;;
51602;SDS011;37954;51.980;5.850;2022-08-01T07:09:47;1.27;;;1.17;;
51602;SDS011;37954;51.980;5.850;2022-08-01T07:14:02;1.20;;;1.00;;
51602;SDS011;37954;51.980;5.850;2022-08-01T07:18:14;0.95;;;0.93;;
51602;SDS011;37954;51.980;5.850;2022-08-01T07:22:26;0.90;;;0.90;;
51602;SDS011;37954;51.980;5.850;2022-08-01T07:26:37;0.98;;;0.98;;
51602;SDS011;37954;51.980;5.850;2022-08-01T07:31:03;0.85;;;0.85;;
51602;SDS011;37954;51.980;5.850;2022-08-01T07:35:16;2.00;;;0.80;;
51602;SDS011;37954;51.980;5.850;2022-08-01T07:39:27;1.30;;;1.15;;
51602;SDS011;37954;51.980;5.850;2022-08-01T07:43:39;0.90;;;0.90;;
51602;SDS011;37954;51.980;5.850;2022-08-01T07:47:55;0.90;;;0.90;;
51602;SDS011;37954;51.980;5.850;2022-08-01T07:52:07;0.93;;;0.93;;
51602;SDS011;37954;51.980;5.850;2022-08-01T07:56:19;2.85;;;1.10;;
51602;SDS011;37954;51.980;5.850;2022-08-01T08:00:31;1.15;;;1.00;;
51602;SDS011;37954;51.980;5.850;2022-08-01T08:04:43;0.93;;;0.90;;
51602;SDS011;37954;51.980;5.850;2022-08-01T08:08:59;1.15;;;1.08;;
51602;SDS011;37954;51.980;5.850;2022-08-01T08:13:11;1.38;;;1.17;;
51602;SDS011;37954;51.980;5.850;2022-08-01T08:17:24;1.27;;;1.10;;
51602;SDS011;37954;51.980;5.850;2022-08-01T08:21:36;0.95;;;0.95;;
51602;SDS011;37954;51.980;5.850;2022-08-01T08:25:49;0.95;;;0.95;;
51602;SDS011;37954;51.980;5.850;2022-08-01T08:30:00;2.13;;;0.98;;
51602;SDS011;37954;51.980;5.850;2022-08-01T08:34:12;1.20;;;1.20;;
51602;SDS011;37954;51.980;5.850;2022-08-01T08:38:26;1.00;;;1.00;;
51602;SDS011;37954;51.980;5.850;2022-08-01T08:42:40;0.90;;;0.90;;
51602;SDS011;37954;51.980;5.850;2022-08-01T08:46:52;1.48;;;1.15;;
51602;SDS011;37954;51.980;5.850;2022-08-01T09:30:29;1.45;;;1.30;;
51602;SDS011;37954;51.980;5.850;2022-08-01T09:34:51;1.50;;;1.40;;
51602;SDS011;37954;51.980;5.850;2022-08-01T09:39:11;1.65;;;1.50;;
51602;SDS011;37954;51.980;5.850;2022-08-01T09:43:30;1.88;;;1.55;;
51602;SDS011;37954;51.980;5.850;2022-08-01T09:48:05;1.60;;;1.50;;
51602;SDS011;37954;51.980;5.850;2022-08-01T09:52:22;2.58;;;1.75;;
51602;SDS011;37954;51.980;5.850;2022-08-01T10:01:25;2.67;;;2.10;;
51602;SDS011;37954;51.980;5.850;2022-08-01T10:05:48;1.65;;;1.55;;
51602;SDS011;37954;51.980;5.850;2022-08-01T10:10:12;2.63;;;1.70;;
51602;SDS011;37954;51.980;5.850;2022-08-01T10:14:25;2.80;;;2.30;;
51602;SDS011;37954;51.980;5.850;2022-08-01T10:18:38;2.30;;;1.90;;
51602;SDS011;37954;51.980;5.850;2022-08-01T10:22:54;2.63;;;2.33;;
51602;SDS011;37954;51.980;5.850;2022-08-01T10:27:12;1.88;;;1.75;;
51602;SDS011;37954;51.980;5.850;2022-08-01T10:31:34;2.50;;;2.15;;
51602;SDS011;37954;51.980;5.850;2022-08-01T10:35:48;5.47;;;2.10;;
51602;SDS011;37954;51.980;5.850;2022-08-01T10:40:01;1.98;;;1.60;;
51602;SDS011;37954;51.980;5.850;2022-08-01T10:44:34;6.57;;;2.38;;
51602;SDS011;37954;51.980;5.850;2022-08-01T10:49:07;2.00;;;1.70;;
51602;SDS011;37954;51.980;5.850;2022-08-01T10:53:23;1.85;;;1.75;;
51602;SDS011;37954;51.980;5.850;2022-08-01T10:57:52;2.33;;;1.23;;
51602;SDS011;37954;51.980;5.850;2022-08-01T11:02:05;2.20;;;1.45;;
51602;SDS011;37954;51.980;5.850;2022-08-01T11:06:17;1.77;;;1.40;;
51602;SDS011;37954;51.980;5.850;2022-08-01T11:19:12;2.63;;;1.60;;
51602;SDS011;37954;51.980;5.850;2022-08-01T11:23:25;1.73;;;1.33;;
51602;SDS011;37954;51.980;5.850;2022-08-01T11:27:39;4.32;;;1.90;;
51602;SDS011;37954;51.980;5.850;2022-08-01T11:31:50;1.92;;;1.58;;
51602;SDS011;37954;51.980;5.850;2022-08-01T11:40:22;2.47;;;1.55;;
51602;SDS011;37954;51.980;5.850;2022-08-01T11:44:47;1.63;;;1.20;;
51602;SDS011;37954;51.980;5.850;2022-08-01T11:53:49;2.25;;;1.58;;
51602;SDS011;37954;51.980;5.850;2022-08-01T11:58:04;2.78;;;1.38;;
51602;SDS011;37954;51.980;5.850;2022-08-01T12:02:39;2.35;;;1.38;;
51602;SDS011;37954;51.980;5.850;2022-08-01T12:06:52;1.88;;;1.20;;
51602;SDS011;37954;51.980;5.850;2022-08-01T12:11:04;2.00;;;1.30;;
51602;SDS011;37954;51.980;5.850;2022-08-01T12:15:17;2.78;;;1.60;;
51602;SDS011;37954;51.980;5.850;2022-08-01T12:19:31;1.30;;;1.20;;
51602;SDS011;37954;51.980;5.850;2022-08-01T12:23:43;1.98;;;1.52;;
51602;SDS011;37954;51.980;5.850;2022-08-01T12:27:54;2.65;;;1.58;;
51602;SDS011;37954;51.980;5.850;2022-08-01T12:32:23;3.42;;;1.35;;
51602;SDS011;37954;51.980;5.850;2022-08-01T12:36:46;1.75;;;1.42;;
51602;SDS011;37954;51.980;5.850;2022-08-01T12:40:57;1.75;;;1.23;;
51602;SDS011;37954;51.980;5.850;2022-08-01T12:45:09;1.40;;;1.30;;
51602;SDS011;37954;51.980;5.850;2022-08-01T12:49:23;1.75;;;1.30;;
51602;SDS011;37954;51.980;5.850;2022-08-01T12:53:35;2.55;;;1.25;;
51602;SDS011;37954;51.980;5.850;2022-08-01T12:58:07;3.45;;;1.38;;
51602;SDS011;37954;51.980;5.850;2022-08-01T13:02:31;5.10;;;1.80;;
51602;SDS011;37954;51.980;5.850;2022-08-01T13:06:44;1.23;;;1.13;;
51602;SDS011;37954;51.980;5.850;2022-08-01T13:19:42;1.48;;;1.38;;
51602;SDS011;37954;51.980;5.850;2022-08-01T13:24:08;2.42;;;1.55;;
51602;SDS011;37954;51.980;5.850;2022-08-01T13:28:25;1.48;;;1.20;;
51602;SDS011;37954;51.980;5.850;2022-08-01T13:32:37;3.05;;;1.40;;
51602;SDS011;37954;51.980;5.850;2022-08-01T13:37:04;2.17;;;1.60;;
51602;SDS011;37954;51.980;5.850;2022-08-01T13:41:18;1.67;;;1.50;;
51602;SDS011;37954;51.980;5.850;2022-08-01T13:45:30;1.27;;;1.17;;
51602;SDS011;37954;51.980;5.850;2022-08-01T13:49:43;1.73;;;1.40;;
51602;SDS011;37954;51.980;5.850;2022-08-01T13:53:54;1.50;;;1.40;;
51602;SDS011;37954;51.980;5.850;2022-08-01T13:58:06;1.35;;;1.10;;
51602;SDS011;37954;51.980;5.850;2022-08-01T14:02:18;1.33;;;1.23;;
51602;SDS011;37954;51.980;5.850;2022-08-01T14:06:31;7.53;;;1.50;;
51602;SDS011;37954;51.980;5.850;2022-08-01T14:10:43;2.15;;;1.60;;
51602;SDS011;37954;51.980;5.850;2022-08-01T14:14:55;5.05;;;1.45;;
51602;SDS011;37954;51.980;5.850;2022-08-01T14:19:07;1.35;;;1.25;;
51602;SDS011;37954;51.980;5.850;2022-08-01T14:23:19;2.78;;;1.30;;
51602;SDS011;37954;51.980;5.850;2022-08-01T14:27:36;0.90;;;0.90;;
51602;SDS011;37954;51.980;5.850;2022-08-01T14:31:47;1.45;;;1.20;;
51602;SDS011;37954;51.980;5.850;2022-08-01T14:36:02;1.58;;;1.10;;
51602;SDS011;37954;51.980;5.850;2022-08-01T14:40:34;0.93;;;0.93;;
51602;SDS011;37954;51.980;5.850;2022-08-01T14:44:46;1.20;;;1.10;;
51602;SDS011;37954;51.980;5.850;2022-08-01T14:49:00;0.70;;;0.70;;
51602;SDS011;37954;51.980;5.850;2022-08-01T14:53:14;1.60;;;1.27;;
51602;SDS011;37954;51.980;5.850;2022-08-01T14:57:26;0.90;;;0.88;;
51602;SDS011;37954;51.980;5.850;2022-08-01T15:01:38;5.85;;;1.40;;
51602;SDS011;37954;51.980;5.850;2022-08-01T15:05:56;1.45;;;1.23;;
51602;SDS011;37954;51.980;5.850;2022-08-01T15:10:10;4.35;;;1.20;;
51602;SDS011;37954;51.980;5.850;2022-08-01T15:14:22;1.08;;;0.93;;
51602;SDS011;37954;51.980;5.850;2022-08-01T15:18:58;2.60;;;1.15;;
51602;SDS011;37954;51.980;5.850;2022-08-01T15:23:10;1.70;;;1.23;;
51602;SDS011;37954;51.980;5.850;2022-08-01T15:27:22;0.90;;;0.90;;
51602;SDS011;37954;51.980;5.850;2022-08-01T15:31:34;1.10;;;1.00;;
51602;SDS011;37954;51.980;5.850;2022-08-01T15:35:49;1.65;;;1.13;;
51602;SDS011;37954;51.980;5.850;2022-08-01T15:40:03;1.10;;;1.00;;
51602;SDS011;37954;51.980;5.850;2022-08-01T15:44:18;4.18;;;1.05;;
51602;SDS011;37954;51.980;5.850;2022-08-01T15:48:31;1.30;;;1.05;;
51602;SDS011;37954;51.980;5.850;2022-08-01T15:52:50;0.70;;;0.70;;
51602;SDS011;37954;51.980;5.850;2022-08-01T15:57:02;1.13;;;0.93;;
51602;SDS011;37954;51.980;5.850;2022-08-01T16:01:13;2.25;;;1.10;;
51602;SDS011;37954;51.980;5.850;2022-08-01T16:05:25;1.23;;;1.13;;
51602;SDS011;37954;51.980;5.850;2022-08-01T16:09:37;2.08;;;1.25;;
51602;SDS011;37954;51.980;5.850;2022-08-01T16:13:49;2.15;;;0.80;;
51602;SDS011;37954;51.980;5.850;2022-08-01T16:18:05;0.90;;;0.90;;
51602;SDS011;37954;51.980;5.850;2022-08-01T16:22:30;0.77;;;0.77;;
51602;SDS011;37954;51.980;5.850;2022-08-01T16:26:51;0.80;;;0.80;;
51602;SDS011;37954;51.980;5.850;2022-08-01T16:31:25;0.80;;;0.80;;
51602;SDS011;37954;51.980;5.850;2022-08-01T16:41:21;0.98;;;0.90;;
51602;SDS011;37954;51.980;5.850;2022-08-01T16:45:45;0.88;;;0.80;;
51602;SDS011;37954;51.980;5.850;2022-08-01T16:50:04;1.20;;;1.00;;
51602;SDS011;37954;51.980;5.850;2022-08-01T16:54:47;0.75;;;0.75;;
51602;SDS011;37954;51.980;5.850;2022-08-01T16:59:17;5.05;;;0.85;;
51602;SDS011;37954;51.980;5.850;2022-08-01T17:03:46;0.85;;;0.75;;
51602;SDS011;37954;51.980;5.850;2022-08-01T17:08:17;0.95;;;0.90;;
51602;SDS011;37954;51.980;5.850;2022-08-01T17:13:15;1.02;;;0.93;;
51602;SDS011;37954;51.980;5.850;2022-08-01T17:17:39;1.17;;;0.95;;
51602;SDS011;37954;51.980;5.850;2022-08-01T17:22:16;4.18;;;0.90;;
51602;SDS011;37954;51.980;5.850;2022-08-01T17:26:28;0.60;;;0.60;;
51602;SDS011;37954;51.980;5.850;2022-08-01T17:30:50;1.10;;;1.00;;
51602;SDS011;37954;51.980;5.850;2022-08-01T17:35:11;0.85;;;0.85;;
51602;SDS011;37954;51.980;5.850;2022-08-01T17:39:25;0.77;;;0.73;;
51602;SDS011;37954;51.980;5.850;2022-08-01T17:43:49;1.25;;;0.85;;
51602;SDS011;37954;51.980;5.850;2022-08-01T17:48:01;1.08;;;0.88;;
51602;SDS011;37954;51.980;5.850;2022-08-01T17:52:18;0.80;;;0.80;;
51602;SDS011;37954;51.980;5.850;2022-08-01T17:56:31;0.77;;;0.70;;
51602;SDS011;37954;51.980;5.850;2022-08-01T18:00:48;0.77;;;0.77;;
51602;SDS011;37954;51.980;5.850;2022-08-01T18:05:03;1.35;;;1.00;;
51602;SDS011;37954;51.980;5.850;2022-08-01T18:09:21;0.70;;;0.70;;
51602;SDS011;37954;51.980;5.850;2022-08-01T18:13:32;1.00;;;0.60;;
51602;SDS011;37954;51.980;5.850;2022-08-01T18:17:47;0.50;;;0.50;;
51602;SDS011;37954;51.980;5.850;2022-08-01T18:21:58;0.77;;;0.60;;
51602;SDS011;37954;51.980;5.850;2022-08-01T18:26:12;5.47;;;1.13;;
51602;SDS011;37954;51.980;5.850;2022-08-01T18:30:27;2.70;;;0.70;;
51602;SDS011;37954;51.980;5.850;2022-08-01T18:34:39;0.73;;;0.70;;
51602;SDS011;37954;51.980;5.850;2022-08-01T18:38:54;0.85;;;0.85;;
51602;SDS011;37954;51.980;5.850;2022-08-01T18:43:06;0.93;;;0.80;;
51602;SDS011;37954;51.980;5.850;2022-08-01T18:47:18;0.70;;;0.70;;
51602;SDS011;37954;51.980;5.850;2022-08-01T18:51:29;0.68;;;0.68;;
51602;SDS011;37954;51.980;5.850;2022-08-01T18:55:41;0.65;;;0.65;;
51602;SDS011;37954;51.980;5.850;2022-08-01T18:59:53;1.33;;;1.02;;
51602;SDS011;37954;51.980;5.850;2022-08-01T19:04:08;0.80;;;0.80;;
51602;SDS011;37954;51.980;5.850;2022-08-01T19:08:20;1.48;;;0.90;;
51602;SDS011;37954;51.980;5.850;2022-08-01T19:12:32;0.68;;;0.68;;
51602;SDS011;37954;51.980;5.850;2022-08-01T19:16:44;0.93;;;0.82;;
51602;SDS011;37954;51.980;5.850;2022-08-01T19:20:59;0.70;;;0.70;;
51602;SDS011;37954;51.980;5.850;2022-08-01T19:25:15;0.93;;;0.88;;
51602;SDS011;37954;51.980;5.850;2022-08-01T19:29:31;0.60;;;0.60;;
51602;SDS011;37954;51.980;5.850;2022-08-01T19:33:46;1.00;;;0.90;;
51602;SDS011;37954;51.980;5.850;2022-08-01T19:37:58;0.65;;;0.65;;
51602;SDS011;37954;51.980;5.850;2022-08-01T19:42:10;1.08;;;0.95;;
51602;SDS011;37954;51.980;5.850;2022-08-01T19:46:25;1.05;;;0.93;;
51602;SDS011;37954;51.980;5.850;2022-08-01T19:50:37;1.30;;;0.85;;
51602;SDS011;37954;51.980;5.850;2022-08-01T19:54:54;0.73;;;0.70;;
51602;SDS011;37954;51.980;5.850;2022-08-01T19:59:07;1.15;;;0.80;;
51602;SDS011;37954;51.980;5.850;2022-08-01T20:03:18;0.93;;;0.90;;
51602;SDS011;37954;51.980;5.850;2022-08-01T20:07:35;1.77;;;0.82;;
51602;SDS011;37954;51.980;5.850;2022-08-01T20:11:48;0.68;;;0.68;;
51602;SDS011;37954;51.980;5.850;2022-08-01T20:16:02;0.65;;;0.65;;
51602;SDS011;37954;51.980;5.850;2022-08-01T20:20:14;0.82;;;0.57;;
51602;SDS011;37954;51.980;5.850;2022-08-01T20:24:26;0.93;;;0.90;;
51602;SDS011;37954;51.980;5.850;2022-08-01T20:28:40;0.60;;;0.60;;
51602;SDS011;37954;51.980;5.850;2022-08-01T20:33:00;1.05;;;0.98;;
51602;SDS011;37954;51.980;5.850;2022-08-01T20:37:11;2.35;;;1.90;;
51602;SDS011;37954;51.980;5.850;2022-08-01T20:41:25;3.70;;;3.13;;
51602;SDS011;37954;51.980;5.850;2022-08-01T20:45:39;4.82;;;2.78;;
51602;SDS011;37954;51.980;5.850;2022-08-01T20:49:52;2.00;;;1.63;;
51602;SDS011;37954;51.980;5.850;2022-08-01T20:54:46;0.80;;;0.80;;
51602;SDS011;37954;51.980;5.850;2022-08-01T20:59:17;0.80;;;0.80;;
51602;SDS011;37954;51.980;5.850;2022-08-01T21:04:13;0.82;;;0.80;;
51602;SDS011;37954;51.980;5.850;2022-08-01T21:08:45;1.67;;;1.50;;
51602;SDS011;37954;51.980;5.850;2022-08-01T21:13:36;3.13;;;2.63;;
51602;SDS011;37954;51.980;5.850;2022-08-01T21:17:58;3.58;;;2.00;;
51602;SDS011;37954;51.980;5.850;2022-08-01T21:22:21;2.85;;;2.13;;
51602;SDS011;37954;51.980;5.850;2022-08-01T21:26:38;1.33;;;1.25;;
51602;SDS011;37954;51.980;5.850;2022-08-01T21:30:51;1.60;;;1.50;;
51602;SDS011;37954;51.980;5.850;2022-08-01T21:35:06;1.77;;;1.27;;
51602;SDS011;37954;51.980;5.850;2022-08-01T21:39:28;1.70;;;1.40;;
51602;SDS011;37954;51.980;5.850;2022-08-01T21:43:40;0.77;;;0.77;;
51602;SDS011;37954;51.980;5.850;2022-08-01T21:47:53;0.70;;;0.70;;
51602;SDS011;37954;51.980;5.850;2022-08-01T22:00:52;1.38;;;1.02;;
51602;SDS011;37954;51.980;5.850;2022-08-01T22:05:12;1.23;;;0.85;;
51602;SDS011;37954;51.980;5.850;2022-08-01T22:09:24;1.40;;;1.05;;
51602;SDS011;37954;51.980;5.850;2022-08-01T22:13:36;2.85;;;1.17;;
51602;SDS011;37954;51.980;5.850;2022-08-01T22:17:49;2.42;;;1.08;;
51602;SDS011;37954;51.980;5.850;2022-08-01T22:22:05;1.10;;;1.00;;
51602;SDS011;37954;51.980;5.850;2022-08-01T22:26:37;1.23;;;1.00;;
51602;SDS011;37954;51.980;5.850;2022-08-01T22:30:51;1.35;;;1.20;;
51602;SDS011;37954;51.980;5.850;2022-08-01T22:35:06;1.90;;;1.70;;
51602;SDS011;37954;51.980;5.850;2022-08-01T22:39:20;1.73;;;1.63;;
51602;SDS011;37954;51.980;5.850;2022-08-01T22:52:31;2.33;;;1.50;;
51602;SDS011;37954;51.980;5.850;2022-08-01T22:56:53;1.70;;;1.48;;
51602;SDS011;37954;51.980;5.850;2022-08-01T23:01:08;2.47;;;1.35;;
51602;SDS011;37954;51.980;5.850;2022-08-01T23:05:33;2.20;;;0.98;;
51602;SDS011;37954;51.980;5.850;2022-08-01T23:09:57;1.45;;;1.10;;
51602;SDS011;37954;51.980;5.850;2022-08-01T23:14:09;1.48;;;1.15;;
51602;SDS011;37954;51.980;5.850;2022-08-01T23:18:21;3.88;;;1.17;;
51602;SDS011;37954;51.980;5.850;2022-08-01T23:22:35;1.60;;;1.45;;
51602;SDS011;37954;51.980;5.850;2022-08-01T23:26:47;1.52;;;1.27;;
51602;SDS011;37954;51.980;5.850;2022-08-01T23:31:00;1.83;;;1.20;;
51602;SDS011;37954;51.980;5.850;2022-08-01T23:35:13;2.28;;;1.08;;
51602;SDS011;37954;51.980;5.850;2022-08-01T23:39:25;1.63;;;1.10;;
51602;SDS011;37954;51.980;5.850;2022-08-01T23:43:37;0.82;;;0.82;;
51602;SDS011;37954;51.980;5.850;2022-08-01T23:48:02;1.33;;;0.88;;
51602;SDS011;37954;51.980;5.850;2022-08-01T23:52:14;0.93;;;0.82;;
51602;SDS011;37954;51.980;5.850;2022-08-01T23:56:31;2.47;;;1.30;;
